sensor_id;sensor_type;location;lat;lon;timestamp;P1;durP1;ratioP1;P2;durP2;ratioP2
14005;SDS011;7078;51.542;7.314;2023-06-24T00:00:56;0.20;;;0.20;;
14005;SDS011;7078;51.542;7.314;2023-06-24T00:03:22;0.10;;;0.10;;
14005;SDS011;7078;51.542;7.314;2023-06-24T00:05:47;0.13;;;0.13;;
14005;SDS011;7078;51.542;7.314;2023-06-24T00:08:17;0.10;;;0.10;;
14005;SDS011;7078;51.542;7.314;2023-06-24T00:10:49;0.10;;;0.10;;
14005;SDS011;7078;51.542;7.314;2023-06-24T00:13:15;0.10;;;0.10;;
14005;SDS011;7078;51.542;7.314;2023-06-24T00:15:41;0.10;;;0.10;;
14005;SDS011;7078;51.542;7.314;2023-06-24T00:18:08;0.10;;;0.10;;
14005;SDS011;7078;51.542;7.314;2023-06-24T00:20:34;0.10;;;0.10;;
14005;SDS011;7078;51.542;7.314;2023-06-24T00:23:00;0.10;;;0.10;;
14005;SDS011;7078;51.542;7.314;2023-06-24T00:25:26;0.10;;;0.10;;
14005;SDS011;7078;51.542;7.314;2023-06-24T00:27:52;0.10;;;0.10;;
14005;SDS011;7078;51.542;7.314;2023-06-24T00:30:17;0.10;;;0.10;;
14005;SDS011;7078;51.542;7.314;2023-06-24T00:32:43;0.10;;;0.10;;
14005;SDS011;7078;51.542;7.314;2023-06-24T00:35:09;0.10;;;0.10;;
14005;SDS011;7078;51.542;7.314;2023-06-24T00:37:37;0.10;;;0.10;;
14005;SDS011;7078;51.542;7.314;2023-06-24T00:40:03;0.10;;;0.10;;
14005;SDS011;7078;51.542;7.314;2023-06-24T00:42:30;0.07;;;0.07;;
14005;SDS011;7078;51.542;7.314;2023-06-24T00:44:56;0.10;;;0.10;;
14005;SDS011;7078;51.542;7.314;2023-06-24T00:47:21;0.10;;;0.10;;
14005;SDS011;7078;51.542;7.314;2023-06-24T00:49:48;0.10;;;0.10;;
14005;SDS011;7078;51.542;7.314;2023-06-24T00:52:14;0.10;;;0.10;;
14005;SDS011;7078;51.542;7.314;2023-06-24T00:54:40;0.10;;;0.10;;
14005;SDS011;7078;51.542;7.314;2023-06-24T00:57:09;0.10;;;0.10;;
14005;SDS011;7078;51.542;7.314;2023-06-24T00:59:35;0.10;;;0.10;;
14005;SDS011;7078;51.542;7.314;2023-06-24T01:02:02;0.10;;;0.10;;
14005;SDS011;7078;51.542;7.314;2023-06-24T01:04:29;0.10;;;0.10;;
14005;SDS011;7078;51.542;7.314;2023-06-24T01:06:58;0.10;;;0.10;;
14005;SDS011;7078;51.542;7.314;2023-06-24T01:09:24;0.10;;;0.10;;
14005;SDS011;7078;51.542;7.314;2023-06-24T01:11:51;0.10;;;0.10;;
14005;SDS011;7078;51.542;7.314;2023-06-24T01:14:17;0.10;;;0.10;;
14005;SDS011;7078;51.542;7.314;2023-06-24T01:16:53;0.10;;;0.10;;
14005;SDS011;7078;51.542;7.314;2023-06-24T01:19:54;0.10;;;0.10;;
14005;SDS011;7078;51.542;7.314;2023-06-24T01:40:31;0.00;;;0.00;;
14005;SDS011;7078;51.542;7.314;2023-06-24T01:42:41;0.10;;;0.10;;
14005;SDS011;7078;51.542;7.314;2023-06-24T01:45:15;0.10;;;0.10;;
14005;SDS011;7078;51.542;7.314;2023-06-24T01:47:44;0.10;;;0.10;;
14005;SDS011;7078;51.542;7.314;2023-06-24T01:50:12;0.10;;;0.10;;
14005;SDS011;7078;51.542;7.314;2023-06-24T01:52:41;0.10;;;0.10;;
14005;SDS011;7078;51.542;7.314;2023-06-24T01:55:10;0.10;;;0.10;;
14005;SDS011;7078;51.542;7.314;2023-06-24T01:57:40;0.10;;;0.10;;
14005;SDS011;7078;51.542;7.314;2023-06-24T02:00:08;0.10;;;0.10;;
14005;SDS011;7078;51.542;7.314;2023-06-24T02:02:35;0.10;;;0.10;;
14005;SDS011;7078;51.542;7.314;2023-06-24T02:05:02;0.10;;;0.10;;
14005;SDS011;7078;51.542;7.314;2023-06-24T02:07:30;0.10;;;0.10;;
14005;SDS011;7078;51.542;7.314;2023-06-24T02:09:57;0.10;;;0.10;;
14005;SDS011;7078;51.542;7.314;2023-06-24T02:12:25;0.10;;;0.10;;
14005;SDS011;7078;51.542;7.314;2023-06-24T02:14:54;0.10;;;0.10;;
14005;SDS011;7078;51.542;7.314;2023-06-24T02:17:20;0.10;;;0.10;;
14005;SDS011;7078;51.542;7.314;2023-06-24T02:19:49;0.10;;;0.10;;
14005;SDS011;7078;51.542;7.314;2023-06-24T02:22:17;0.10;;;0.10;;
14005;SDS011;7078;51.542;7.314;2023-06-24T02:24:43;0.10;;;0.10;;
14005;SDS011;7078;51.542;7.314;2023-06-24T02:27:09;0.10;;;0.10;;
14005;SDS011;7078;51.542;7.314;2023-06-24T02:29:36;0.10;;;0.10;;
14005;SDS011;7078;51.542;7.314;2023-06-24T02:32:04;0.10;;;0.10;;
14005;SDS011;7078;51.542;7.314;2023-06-24T02:34:30;0.10;;;0.10;;
14005;SDS011;7078;51.542;7.314;2023-06-24T02:36:55;0.10;;;0.10;;
14005;SDS011;7078;51.542;7.314;2023-06-24T02:39:21;0.10;;;0.10;;
14005;SDS011;7078;51.542;7.314;2023-06-24T02:41:47;0.10;;;0.10;;
14005;SDS011;7078;51.542;7.314;2023-06-24T02:44:14;0.10;;;0.10;;
14005;SDS011;7078;51.542;7.314;2023-06-24T02:46:40;0.10;;;0.10;;
14005;SDS011;7078;51.542;7.314;2023-06-24T02:49:08;0.10;;;0.10;;
14005;SDS011;7078;51.542;7.314;2023-06-24T02:51:35;0.10;;;0.10;;
14005;SDS011;7078;51.542;7.314;2023-06-24T02:54:03;0.10;;;0.10;;
14005;SDS011;7078;51.542;7.314;2023-06-24T02:56:30;0.10;;;0.10;;
14005;SDS011;7078;51.542;7.314;2023-06-24T02:58:56;0.10;;;0.10;;
14005;SDS011;7078;51.542;7.314;2023-06-24T03:01:22;0.10;;;0.10;;
14005;SDS011;7078;51.542;7.314;2023-06-24T03:03:51;0.10;;;0.10;;
14005;SDS011;7078;51.542;7.314;2023-06-24T03:06:18;0.10;;;0.10;;
14005;SDS011;7078;51.542;7.314;2023-06-24T03:08:45;0.10;;;0.10;;
14005;SDS011;7078;51.542;7.314;2023-06-24T03:11:14;0.10;;;0.10;;
14005;SDS011;7078;51.542;7.314;2023-06-24T03:13:40;0.10;;;0.10;;
14005;SDS011;7078;51.542;7.314;2023-06-24T03:16:06;0.10;;;0.10;;
14005;SDS011;7078;51.542;7.314;2023-06-24T03:18:36;0.10;;;0.10;;
14005;SDS011;7078;51.542;7.314;2023-06-24T03:21:05;0.00;;;0.00;;
14005;SDS011;7078;51.542;7.314;2023-06-24T03:23:31;0.10;;;0.10;;
14005;SDS011;7078;51.542;7.314;2023-06-24T03:25:57;0.10;;;0.10;;
14005;SDS011;7078;51.542;7.314;2023-06-24T03:28:22;0.10;;;0.10;;
14005;SDS011;7078;51.542;7.314;2023-06-24T03:30:48;0.10;;;0.10;;
14005;SDS011;7078;51.542;7.314;2023-06-24T03:33:13;0.10;;;0.10;;
14005;SDS011;7078;51.542;7.314;2023-06-24T03:35:42;0.10;;;0.10;;
14005;SDS011;7078;51.542;7.314;2023-06-24T03:38:08;0.10;;;0.10;;
14005;SDS011;7078;51.542;7.314;2023-06-24T03:40:34;0.10;;;0.10;;
14005;SDS011;7078;51.542;7.314;2023-06-24T03:42:59;0.10;;;0.10;;
14005;SDS011;7078;51.542;7.314;2023-06-24T03:45:25;0.10;;;0.10;;
14005;SDS011;7078;51.542;7.314;2023-06-24T03:47:51;0.10;;;0.10;;
14005;SDS011;7078;51.542;7.314;2023-06-24T03:50:16;0.10;;;0.10;;
14005;SDS011;7078;51.542;7.314;2023-06-24T03:52:42;0.10;;;0.10;;
14005;SDS011;7078;51.542;7.314;2023-06-24T03:55:09;0.10;;;0.10;;
14005;SDS011;7078;51.542;7.314;2023-06-24T03:57:35;0.10;;;0.10;;
14005;SDS011;7078;51.542;7.314;2023-06-24T04:00:01;0.10;;;0.10;;
14005;SDS011;7078;51.542;7.314;2023-06-24T04:02:32;0.10;;;0.10;;
14005;SDS011;7078;51.542;7.314;2023-06-24T04:04:58;0.10;;;0.10;;
14005;SDS011;7078;51.542;7.314;2023-06-24T04:07:23;0.10;;;0.10;;
14005;SDS011;7078;51.542;7.314;2023-06-24T04:09:55;0.10;;;0.10;;
14005;SDS011;7078;51.542;7.314;2023-06-24T04:12:21;0.03;;;0.03;;
14005;SDS011;7078;51.542;7.314;2023-06-24T04:14:47;0.10;;;0.10;;
14005;SDS011;7078;51.542;7.314;2023-06-24T04:17:13;0.10;;;0.10;;
14005;SDS011;7078;51.542;7.314;2023-06-24T04:19:38;0.10;;;0.10;;
14005;SDS011;7078;51.542;7.314;2023-06-24T04:22:04;0.10;;;0.10;;
14005;SDS011;7078;51.542;7.314;2023-06-24T04:24:30;0.10;;;0.10;;
14005;SDS011;7078;51.542;7.314;2023-06-24T04:26:56;0.10;;;0.10;;
14005;SDS011;7078;51.542;7.314;2023-06-24T04:29:22;0.10;;;0.10;;
14005;SDS011;7078;51.542;7.314;2023-06-24T04:31:48;0.10;;;0.10;;
14005;SDS011;7078;51.542;7.314;2023-06-24T04:34:13;0.10;;;0.10;;
14005;SDS011;7078;51.542;7.314;2023-06-24T04:36:39;0.10;;;0.10;;
14005;SDS011;7078;51.542;7.314;2023-06-24T04:39:04;0.10;;;0.10;;
14005;SDS011;7078;51.542;7.314;2023-06-24T04:41:30;0.10;;;0.10;;
14005;SDS011;7078;51.542;7.314;2023-06-24T04:43:57;0.10;;;0.10;;
14005;SDS011;7078;51.542;7.314;2023-06-24T04:46:22;0.10;;;0.10;;
14005;SDS011;7078;51.542;7.314;2023-06-24T04:48:48;0.10;;;0.10;;
14005;SDS011;7078;51.542;7.314;2023-06-24T04:51:14;0.10;;;0.10;;
14005;SDS011;7078;51.542;7.314;2023-06-24T04:53:40;0.10;;;0.10;;
14005;SDS011;7078;51.542;7.314;2023-06-24T04:56:06;0.10;;;0.10;;
14005;SDS011;7078;51.542;7.314;2023-06-24T04:58:31;0.10;;;0.10;;
14005;SDS011;7078;51.542;7.314;2023-06-24T05:00:57;0.10;;;0.10;;
14005;SDS011;7078;51.542;7.314;2023-06-24T05:03:23;0.10;;;0.10;;
14005;SDS011;7078;51.542;7.314;2023-06-24T05:05:49;0.10;;;0.10;;
14005;SDS011;7078;51.542;7.314;2023-06-24T05:08:15;0.10;;;0.10;;
14005;SDS011;7078;51.542;7.314;2023-06-24T05:10:40;0.10;;;0.10;;
14005;SDS011;7078;51.542;7.314;2023-06-24T05:13:06;0.10;;;0.10;;
14005;SDS011;7078;51.542;7.314;2023-06-24T05:15:31;0.10;;;0.10;;
14005;SDS011;7078;51.542;7.314;2023-06-24T05:17:57;0.10;;;0.10;;
14005;SDS011;7078;51.542;7.314;2023-06-24T05:20:23;0.10;;;0.10;;
14005;SDS011;7078;51.542;7.314;2023-06-24T05:22:48;0.10;;;0.10;;
14005;SDS011;7078;51.542;7.314;2023-06-24T05:25:14;0.10;;;0.10;;
14005;SDS011;7078;51.542;7.314;2023-06-24T05:27:39;0.10;;;0.10;;
14005;SDS011;7078;51.542;7.314;2023-06-24T05:30:05;0.10;;;0.10;;
14005;SDS011;7078;51.542;7.314;2023-06-24T05:32:31;0.10;;;0.10;;
14005;SDS011;7078;51.542;7.314;2023-06-24T05:34:57;0.10;;;0.10;;
14005;SDS011;7078;51.542;7.314;2023-06-24T05:37:22;0.10;;;0.10;;
14005;SDS011;7078;51.542;7.314;2023-06-24T05:39:48;0.10;;;0.10;;
14005;SDS011;7078;51.542;7.314;2023-06-24T05:42:13;0.10;;;0.10;;
14005;SDS011;7078;51.542;7.314;2023-06-24T05:44:39;0.10;;;0.10;;
14005;SDS011;7078;51.542;7.314;2023-06-24T05:47:04;0.10;;;0.10;;
14005;SDS011;7078;51.542;7.314;2023-06-24T05:49:30;0.10;;;0.10;;
14005;SDS011;7078;51.542;7.314;2023-06-24T05:51:56;0.10;;;0.10;;
14005;SDS011;7078;51.542;7.314;2023-06-24T05:54:22;0.10;;;0.10;;
14005;SDS011;7078;51.542;7.314;2023-06-24T05:56:48;0.10;;;0.10;;
14005;SDS011;7078;51.542;7.314;2023-06-24T05:59:13;0.10;;;0.10;;
14005;SDS011;7078;51.542;7.314;2023-06-24T06:01:39;0.10;;;0.10;;
14005;SDS011;7078;51.542;7.314;2023-06-24T06:04:04;0.10;;;0.10;;
14005;SDS011;7078;51.542;7.314;2023-06-24T06:06:30;0.10;;;0.10;;
14005;SDS011;7078;51.542;7.314;2023-06-24T06:08:56;0.10;;;0.10;;
14005;SDS011;7078;51.542;7.314;2023-06-24T06:11:22;0.10;;;0.10;;
14005;SDS011;7078;51.542;7.314;2023-06-24T06:13:48;0.10;;;0.10;;
14005;SDS011;7078;51.542;7.314;2023-06-24T06:16:13;0.10;;;0.10;;
14005;SDS011;7078;51.542;7.314;2023-06-24T06:18:39;0.10;;;0.10;;
14005;SDS011;7078;51.542;7.314;2023-06-24T06:21:04;0.10;;;0.10;;
14005;SDS011;7078;51.542;7.314;2023-06-24T06:23:30;0.10;;;0.10;;
14005;SDS011;7078;51.542;7.314;2023-06-24T06:25:55;0.10;;;0.10;;
14005;SDS011;7078;51.542;7.314;2023-06-24T06:28:21;0.10;;;0.10;;
14005;SDS011;7078;51.542;7.314;2023-06-24T06:30:47;0.10;;;0.10;;
14005;SDS011;7078;51.542;7.314;2023-06-24T06:33:12;0.10;;;0.10;;
14005;SDS011;7078;51.542;7.314;2023-06-24T06:35:37;0.20;;;0.20;;
14005;SDS011;7078;51.542;7.314;2023-06-24T06:38:04;0.10;;;0.10;;
14005;SDS011;7078;51.542;7.314;2023-06-24T06:40:30;0.10;;;0.10;;
14005;SDS011;7078;51.542;7.314;2023-06-24T06:42:55;0.10;;;0.10;;
14005;SDS011;7078;51.542;7.314;2023-06-24T06:45:21;0.10;;;0.10;;
14005;SDS011;7078;51.542;7.314;2023-06-24T06:47:47;0.10;;;0.10;;
14005;SDS011;7078;51.542;7.314;2023-06-24T06:50:12;0.10;;;0.10;;
14005;SDS011;7078;51.542;7.314;2023-06-24T06:52:38;0.10;;;0.10;;
14005;SDS011;7078;51.542;7.314;2023-06-24T06:55:04;0.20;;;0.20;;
14005;SDS011;7078;51.542;7.314;2023-06-24T06:57:30;0.10;;;0.10;;
14005;SDS011;7078;51.542;7.314;2023-06-24T06:59:56;0.10;;;0.10;;
14005;SDS011;7078;51.542;7.314;2023-06-24T07:02:22;0.10;;;0.10;;
14005;SDS011;7078;51.542;7.314;2023-06-24T07:04:47;0.20;;;0.20;;
14005;SDS011;7078;51.542;7.314;2023-06-24T07:07:13;0.10;;;0.10;;
14005;SDS011;7078;51.542;7.314;2023-06-24T07:09:39;0.10;;;0.10;;
14005;SDS011;7078;51.542;7.314;2023-06-24T07:12:05;0.10;;;0.10;;
14005;SDS011;7078;51.542;7.314;2023-06-24T07:14:31;0.10;;;0.10;;
14005;SDS011;7078;51.542;7.314;2023-06-24T07:16:57;0.10;;;0.10;;
14005;SDS011;7078;51.542;7.314;2023-06-24T07:19:22;0.13;;;0.13;;
14005;SDS011;7078;51.542;7.314;2023-06-24T07:21:48;0.10;;;0.10;;
14005;SDS011;7078;51.542;7.314;2023-06-24T07:24:13;0.20;;;0.20;;
14005;SDS011;7078;51.542;7.314;2023-06-24T07:26:39;0.10;;;0.10;;
14005;SDS011;7078;51.542;7.314;2023-06-24T07:29:05;0.10;;;0.10;;
14005;SDS011;7078;51.542;7.314;2023-06-24T07:31:33;0.10;;;0.10;;
14005;SDS011;7078;51.542;7.314;2023-06-24T07:33:59;0.10;;;0.10;;
14005;SDS011;7078;51.542;7.314;2023-06-24T07:36:25;0.10;;;0.10;;
14005;SDS011;7078;51.542;7.314;2023-06-24T07:38:50;0.20;;;0.20;;
14005;SDS011;7078;51.542;7.314;2023-06-24T07:41:16;0.20;;;0.20;;
14005;SDS011;7078;51.542;7.314;2023-06-24T07:43:41;0.10;;;0.10;;
14005;SDS011;7078;51.542;7.314;2023-06-24T07:46:07;0.20;;;0.20;;
14005;SDS011;7078;51.542;7.314;2023-06-24T07:48:32;0.10;;;0.10;;
14005;SDS011;7078;51.542;7.314;2023-06-24T07:50:58;0.10;;;0.10;;
14005;SDS011;7078;51.542;7.314;2023-06-24T07:53:23;0.20;;;0.20;;
14005;SDS011;7078;51.542;7.314;2023-06-24T07:55:49;0.20;;;0.20;;
14005;SDS011;7078;51.542;7.314;2023-06-24T07:58:14;0.10;;;0.10;;
14005;SDS011;7078;51.542;7.314;2023-06-24T08:00:40;0.20;;;0.20;;
14005;SDS011;7078;51.542;7.314;2023-06-24T08:03:05;0.10;;;0.10;;
14005;SDS011;7078;51.542;7.314;2023-06-24T08:05:31;0.10;;;0.10;;
14005;SDS011;7078;51.542;7.314;2023-06-24T08:07:56;0.10;;;0.10;;
14005;SDS011;7078;51.542;7.314;2023-06-24T08:10:22;0.20;;;0.20;;
14005;SDS011;7078;51.542;7.314;2023-06-24T08:12:48;0.10;;;0.10;;
14005;SDS011;7078;51.542;7.314;2023-06-24T08:15:13;0.10;;;0.10;;
14005;SDS011;7078;51.542;7.314;2023-06-24T08:17:39;0.20;;;0.20;;
14005;SDS011;7078;51.542;7.314;2023-06-24T08:20:05;0.17;;;0.17;;
14005;SDS011;7078;51.542;7.314;2023-06-24T08:22:30;0.20;;;0.20;;
14005;SDS011;7078;51.542;7.314;2023-06-24T08:24:56;0.20;;;0.20;;
14005;SDS011;7078;51.542;7.314;2023-06-24T08:27:23;0.20;;;0.20;;
14005;SDS011;7078;51.542;7.314;2023-06-24T08:29:48;0.20;;;0.20;;
14005;SDS011;7078;51.542;7.314;2023-06-24T08:32:14;0.20;;;0.20;;
14005;SDS011;7078;51.542;7.314;2023-06-24T08:34:39;0.20;;;0.20;;
14005;SDS011;7078;51.542;7.314;2023-06-24T08:37:05;0.20;;;0.20;;
14005;SDS011;7078;51.542;7.314;2023-06-24T08:39:30;0.20;;;0.20;;
14005;SDS011;7078;51.542;7.314;2023-06-24T08:41:56;0.20;;;0.20;;
14005;SDS011;7078;51.542;7.314;2023-06-24T08:44:21;0.10;;;0.10;;
14005;SDS011;7078;51.542;7.314;2023-06-24T08:46:47;0.10;;;0.10;;
14005;SDS011;7078;51.542;7.314;2023-06-24T08:51:55;0.20;;;0.20;;
14005;SDS011;7078;51.542;7.314;2023-06-24T08:54:28;0.20;;;0.20;;
14005;SDS011;7078;51.542;7.314;2023-06-24T08:56:55;0.10;;;0.10;;
14005;SDS011;7078;51.542;7.314;2023-06-24T08:59:20;0.20;;;0.20;;
14005;SDS011;7078;51.542;7.314;2023-06-24T09:01:46;0.20;;;0.20;;
14005;SDS011;7078;51.542;7.314;2023-06-24T09:04:12;0.20;;;0.20;;
14005;SDS011;7078;51.542;7.314;2023-06-24T09:06:38;0.20;;;0.20;;
14005;SDS011;7078;51.542;7.314;2023-06-24T09:09:03;0.20;;;0.20;;
14005;SDS011;7078;51.542;7.314;2023-06-24T09:11:30;0.20;;;0.20;;
14005;SDS011;7078;51.542;7.314;2023-06-24T09:13:58;0.20;;;0.20;;
14005;SDS011;7078;51.542;7.314;2023-06-24T09:16:24;0.20;;;0.20;;
14005;SDS011;7078;51.542;7.314;2023-06-24T09:18:51;0.10;;;0.10;;
14005;SDS011;7078;51.542;7.314;2023-06-24T09:21:24;0.20;;;0.20;;
14005;SDS011;7078;51.542;7.314;2023-06-24T09:23:51;0.20;;;0.20;;
14005;SDS011;7078;51.542;7.314;2023-06-24T09:26:18;0.20;;;0.20;;
14005;SDS011;7078;51.542;7.314;2023-06-24T09:28:47;0.20;;;0.20;;
14005;SDS011;7078;51.542;7.314;2023-06-24T09:31:14;0.20;;;0.20;;
14005;SDS011;7078;51.542;7.314;2023-06-24T09:33:39;0.20;;;0.20;;
14005;SDS011;7078;51.542;7.314;2023-06-24T09:36:05;0.17;;;0.17;;
14005;SDS011;7078;51.542;7.314;2023-06-24T09:38:31;0.20;;;0.20;;
14005;SDS011;7078;51.542;7.314;2023-06-24T09:41:04;0.20;;;0.20;;
14005;SDS011;7078;51.542;7.314;2023-06-24T09:43:34;0.20;;;0.20;;
14005;SDS011;7078;51.542;7.314;2023-06-24T09:46:05;0.17;;;0.17;;
14005;SDS011;7078;51.542;7.314;2023-06-24T09:48:32;0.20;;;0.20;;
14005;SDS011;7078;51.542;7.314;2023-06-24T09:51:02;0.20;;;0.20;;
14005;SDS011;7078;51.542;7.314;2023-06-24T09:53:33;0.20;;;0.20;;
14005;SDS011;7078;51.542;7.314;2023-06-24T09:56:00;0.20;;;0.20;;
14005;SDS011;7078;51.542;7.314;2023-06-24T09:58:35;0.20;;;0.20;;
14005;SDS011;7078;51.542;7.314;2023-06-24T10:01:02;0.20;;;0.20;;
14005;SDS011;7078;51.542;7.314;2023-06-24T10:03:31;0.20;;;0.20;;
14005;SDS011;7078;51.542;7.314;2023-06-24T10:05:59;0.10;;;0.10;;
14005;SDS011;7078;51.542;7.314;2023-06-24T10:08:26;0.20;;;0.20;;
14005;SDS011;7078;51.542;7.314;2023-06-24T10:10:53;0.20;;;0.20;;
14005;SDS011;7078;51.542;7.314;2023-06-24T10:13:19;0.17;;;0.17;;
14005;SDS011;7078;51.542;7.314;2023-06-24T10:15:44;0.20;;;0.20;;
14005;SDS011;7078;51.542;7.314;2023-06-24T10:21:05;0.20;;;0.20;;
14005;SDS011;7078;51.542;7.314;2023-06-24T10:26:25;0.20;;;0.20;;
14005;SDS011;7078;51.542;7.314;2023-06-24T10:40:03;0.20;;;0.20;;
14005;SDS011;7078;51.542;7.314;2023-06-24T10:50:05;0.20;;;0.20;;
14005;SDS011;7078;51.542;7.314;2023-06-24T10:52:31;0.20;;;0.20;;
14005;SDS011;7078;51.542;7.314;2023-06-24T10:54:58;0.23;;;0.23;;
14005;SDS011;7078;51.542;7.314;2023-06-24T10:57:27;0.20;;;0.20;;
14005;SDS011;7078;51.542;7.314;2023-06-24T10:59:56;0.20;;;0.20;;
14005;SDS011;7078;51.542;7.314;2023-06-24T11:02:23;0.20;;;0.20;;
14005;SDS011;7078;51.542;7.314;2023-06-24T11:04:51;0.17;;;0.17;;
14005;SDS011;7078;51.542;7.314;2023-06-24T11:07:21;0.10;;;0.10;;
14005;SDS011;7078;51.542;7.314;2023-06-24T11:09:51;0.20;;;0.20;;
14005;SDS011;7078;51.542;7.314;2023-06-24T11:12:18;0.20;;;0.20;;
14005;SDS011;7078;51.542;7.314;2023-06-24T11:14:48;0.20;;;0.20;;
14005;SDS011;7078;51.542;7.314;2023-06-24T11:17:13;0.20;;;0.20;;
14005;SDS011;7078;51.542;7.314;2023-06-24T11:19:39;0.20;;;0.20;;
14005;SDS011;7078;51.542;7.314;2023-06-24T11:22:06;0.20;;;0.20;;
14005;SDS011;7078;51.542;7.314;2023-06-24T11:24:34;0.20;;;0.20;;
14005;SDS011;7078;51.542;7.314;2023-06-24T11:27:00;0.20;;;0.20;;
14005;SDS011;7078;51.542;7.314;2023-06-24T11:29:29;0.20;;;0.20;;
14005;SDS011;7078;51.542;7.314;2023-06-24T11:31:56;0.20;;;0.20;;
14005;SDS011;7078;51.542;7.314;2023-06-24T11:34:22;0.20;;;0.20;;
14005;SDS011;7078;51.542;7.314;2023-06-24T11:36:47;0.20;;;0.20;;
14005;SDS011;7078;51.542;7.314;2023-06-24T11:39:20;0.20;;;0.20;;
14005;SDS011;7078;51.542;7.314;2023-06-24T11:41:49;0.20;;;0.20;;
14005;SDS011;7078;51.542;7.314;2023-06-24T11:44:19;0.20;;;0.20;;
14005;SDS011;7078;51.542;7.314;2023-06-24T11:46:45;0.20;;;0.20;;
14005;SDS011;7078;51.542;7.314;2023-06-24T11:49:11;0.20;;;0.20;;
14005;SDS011;7078;51.542;7.314;2023-06-24T11:51:45;0.20;;;0.20;;
14005;SDS011;7078;51.542;7.314;2023-06-24T11:54:13;0.20;;;0.20;;
14005;SDS011;7078;51.542;7.314;2023-06-24T11:56:43;0.20;;;0.20;;
14005;SDS011;7078;51.542;7.314;2023-06-24T11:59:22;0.20;;;0.20;;
14005;SDS011;7078;51.542;7.314;2023-06-24T12:01:54;0.10;;;0.10;;
14005;SDS011;7078;51.542;7.314;2023-06-24T12:04:31;0.20;;;0.20;;
14005;SDS011;7078;51.542;7.314;2023-06-24T12:06:57;0.20;;;0.20;;
14005;SDS011;7078;51.542;7.314;2023-06-24T12:09:23;0.20;;;0.20;;
14005;SDS011;7078;51.542;7.314;2023-06-24T12:11:49;0.20;;;0.20;;
14005;SDS011;7078;51.542;7.314;2023-06-24T12:14:15;0.20;;;0.20;;
14005;SDS011;7078;51.542;7.314;2023-06-24T12:16:40;0.20;;;0.20;;
14005;SDS011;7078;51.542;7.314;2023-06-24T12:19:06;0.20;;;0.20;;
14005;SDS011;7078;51.542;7.314;2023-06-24T12:21:33;0.20;;;0.20;;
14005;SDS011;7078;51.542;7.314;2023-06-24T12:23:59;0.20;;;0.20;;
14005;SDS011;7078;51.542;7.314;2023-06-24T12:26:24;0.20;;;0.20;;
14005;SDS011;7078;51.542;7.314;2023-06-24T12:28:50;0.20;;;0.20;;
14005;SDS011;7078;51.542;7.314;2023-06-24T12:31:15;0.20;;;0.20;;
14005;SDS011;7078;51.542;7.314;2023-06-24T12:33:41;0.20;;;0.20;;
14005;SDS011;7078;51.542;7.314;2023-06-24T12:36:06;0.13;;;0.13;;
14005;SDS011;7078;51.542;7.314;2023-06-24T12:38:32;0.20;;;0.20;;
14005;SDS011;7078;51.542;7.314;2023-06-24T12:40:57;0.20;;;0.20;;
14005;SDS011;7078;51.542;7.314;2023-06-24T12:43:23;0.20;;;0.20;;
14005;SDS011;7078;51.542;7.314;2023-06-24T12:45:49;0.20;;;0.20;;
14005;SDS011;7078;51.542;7.314;2023-06-24T12:48:16;0.20;;;0.20;;
14005;SDS011;7078;51.542;7.314;2023-06-24T12:50:41;0.20;;;0.20;;
14005;SDS011;7078;51.542;7.314;2023-06-24T12:53:07;0.20;;;0.20;;
14005;SDS011;7078;51.542;7.314;2023-06-24T12:55:35;0.27;;;0.27;;
14005;SDS011;7078;51.542;7.314;2023-06-24T12:58:01;0.20;;;0.20;;
14005;SDS011;7078;51.542;7.314;2023-06-24T13:00:27;0.20;;;0.20;;
14005;SDS011;7078;51.542;7.314;2023-06-24T13:02:52;0.20;;;0.20;;
14005;SDS011;7078;51.542;7.314;2023-06-24T13:05:18;0.20;;;0.20;;
14005;SDS011;7078;51.542;7.314;2023-06-24T13:07:44;0.20;;;0.20;;
14005;SDS011;7078;51.542;7.314;2023-06-24T13:10:10;0.20;;;0.20;;
14005;SDS011;7078;51.542;7.314;2023-06-24T13:12:35;0.20;;;0.20;;
14005;SDS011;7078;51.542;7.314;2023-06-24T13:15:02;0.20;;;0.20;;
14005;SDS011;7078;51.542;7.314;2023-06-24T13:17:31;0.20;;;0.20;;
14005;SDS011;7078;51.542;7.314;2023-06-24T13:19:57;0.20;;;0.20;;
14005;SDS011;7078;51.542;7.314;2023-06-24T13:22:23;0.20;;;0.20;;
14005;SDS011;7078;51.542;7.314;2023-06-24T13:24:49;0.20;;;0.20;;
14005;SDS011;7078;51.542;7.314;2023-06-24T13:27:14;0.20;;;0.20;;
14005;SDS011;7078;51.542;7.314;2023-06-24T13:29:40;0.20;;;0.20;;
14005;SDS011;7078;51.542;7.314;2023-06-24T13:32:06;0.20;;;0.20;;
14005;SDS011;7078;51.542;7.314;2023-06-24T13:34:32;0.20;;;0.20;;
14005;SDS011;7078;51.542;7.314;2023-06-24T13:36:57;0.20;;;0.20;;
14005;SDS011;7078;51.542;7.314;2023-06-24T13:39:23;0.20;;;0.20;;
14005;SDS011;7078;51.542;7.314;2023-06-24T13:41:49;0.20;;;0.20;;
14005;SDS011;7078;51.542;7.314;2023-06-24T13:44:15;0.20;;;0.20;;
14005;SDS011;7078;51.542;7.314;2023-06-24T13:46:41;0.20;;;0.20;;
14005;SDS011;7078;51.542;7.314;2023-06-24T13:49:06;0.20;;;0.20;;
14005;SDS011;7078;51.542;7.314;2023-06-24T13:51:32;0.20;;;0.20;;
14005;SDS011;7078;51.542;7.314;2023-06-24T13:53:58;0.20;;;0.20;;
14005;SDS011;7078;51.542;7.314;2023-06-24T13:56:24;0.20;;;0.20;;
14005;SDS011;7078;51.542;7.314;2023-06-24T13:58:51;0.20;;;0.20;;
14005;SDS011;7078;51.542;7.314;2023-06-24T14:01:17;0.20;;;0.20;;
14005;SDS011;7078;51.542;7.314;2023-06-24T14:03:43;0.20;;;0.20;;
14005;SDS011;7078;51.542;7.314;2023-06-24T14:06:09;0.20;;;0.20;;
14005;SDS011;7078;51.542;7.314;2023-06-24T14:08:35;0.20;;;0.20;;
14005;SDS011;7078;51.542;7.314;2023-06-24T14:11:01;0.20;;;0.20;;
14005;SDS011;7078;51.542;7.314;2023-06-24T14:13:27;0.20;;;0.20;;
14005;SDS011;7078;51.542;7.314;2023-06-24T14:15:54;0.20;;;0.20;;
14005;SDS011;7078;51.542;7.314;2023-06-24T14:18:20;0.20;;;0.20;;
14005;SDS011;7078;51.542;7.314;2023-06-24T14:20:46;0.20;;;0.20;;
14005;SDS011;7078;51.542;7.314;2023-06-24T14:23:11;0.20;;;0.20;;
14005;SDS011;7078;51.542;7.314;2023-06-24T14:25:37;0.20;;;0.20;;
14005;SDS011;7078;51.542;7.314;2023-06-24T14:28:06;0.20;;;0.20;;
14005;SDS011;7078;51.542;7.314;2023-06-24T14:30:32;0.20;;;0.20;;
14005;SDS011;7078;51.542;7.314;2023-06-24T14:32:58;0.20;;;0.20;;
14005;SDS011;7078;51.542;7.314;2023-06-24T14:35:23;0.20;;;0.20;;
14005;SDS011;7078;51.542;7.314;2023-06-24T14:37:50;0.20;;;0.20;;
14005;SDS011;7078;51.542;7.314;2023-06-24T14:40:16;0.20;;;0.20;;
14005;SDS011;7078;51.542;7.314;2023-06-24T14:42:41;0.30;;;0.30;;
14005;SDS011;7078;51.542;7.314;2023-06-24T14:45:07;0.30;;;0.30;;
14005;SDS011;7078;51.542;7.314;2023-06-24T14:47:33;0.20;;;0.20;;
14005;SDS011;7078;51.542;7.314;2023-06-24T14:49:58;0.20;;;0.20;;
14005;SDS011;7078;51.542;7.314;2023-06-24T14:52:24;0.20;;;0.20;;
14005;SDS011;7078;51.542;7.314;2023-06-24T14:54:49;0.23;;;0.23;;
14005;SDS011;7078;51.542;7.314;2023-06-24T14:57:15;0.20;;;0.20;;
14005;SDS011;7078;51.542;7.314;2023-06-24T14:59:41;0.20;;;0.20;;
14005;SDS011;7078;51.542;7.314;2023-06-24T15:02:07;0.20;;;0.20;;
14005;SDS011;7078;51.542;7.314;2023-06-24T15:04:32;0.20;;;0.20;;
14005;SDS011;7078;51.542;7.314;2023-06-24T15:06:59;0.20;;;0.20;;
14005;SDS011;7078;51.542;7.314;2023-06-24T15:09:24;0.20;;;0.20;;
14005;SDS011;7078;51.542;7.314;2023-06-24T15:11:50;0.20;;;0.20;;
14005;SDS011;7078;51.542;7.314;2023-06-24T15:14:16;0.20;;;0.20;;
14005;SDS011;7078;51.542;7.314;2023-06-24T15:16:42;0.20;;;0.20;;
14005;SDS011;7078;51.542;7.314;2023-06-24T15:19:08;0.20;;;0.20;;
14005;SDS011;7078;51.542;7.314;2023-06-24T15:21:33;0.20;;;0.20;;
14005;SDS011;7078;51.542;7.314;2023-06-24T15:23:59;0.20;;;0.20;;
14005;SDS011;7078;51.542;7.314;2023-06-24T15:26:24;0.20;;;0.20;;
14005;SDS011;7078;51.542;7.314;2023-06-24T15:28:50;0.30;;;0.30;;
14005;SDS011;7078;51.542;7.314;2023-06-24T15:31:15;0.20;;;0.20;;
14005;SDS011;7078;51.542;7.314;2023-06-24T15:33:41;0.20;;;0.20;;
14005;SDS011;7078;51.542;7.314;2023-06-24T15:36:06;0.30;;;0.30;;
14005;SDS011;7078;51.542;7.314;2023-06-24T15:38:32;0.30;;;0.30;;
14005;SDS011;7078;51.542;7.314;2023-06-24T15:40:58;0.30;;;0.30;;